sensor_id;sensor_type;location;lat;lon;timestamp;pressure;altitude;pressure_sealevel;temperature;humidity
41264;BME280;26998;48.714;9.414;2022-07-30T00:01:47;98767.28;;;16.44;100.00
41264;BME280;26998;48.714;9.414;2022-07-30T00:04:13;98768.16;;;16.33;100.00
41264;BME280;26998;48.714;9.414;2022-07-30T00:06:40;98774.25;;;16.28;100.00
41264;BME280;26998;48.714;9.414;2022-07-30T00:09:07;98776.84;;;16.23;100.00
41264;BME280;26998;48.714;9.414;2022-07-30T00:11:33;98773.69;;;16.26;100.00
41264;BME280;26998;48.714;9.414;2022-07-30T00:14:00;98771.47;;;16.23;100.00
41264;BME280;26998;48.714;9.414;2022-07-30T00:16:28;98782.47;;;16.22;100.00
41264;BME280;26998;48.714;9.414;2022-07-30T00:18:56;98791.28;;;16.17;100.00
41264;BME280;26998;48.714;9.414;2022-07-30T00:21:23;98789.41;;;16.17;100.00
41264;BME280;26998;48.714;9.414;2022-07-30T00:24:04;98793.59;;;16.13;100.00
41264;BME280;26998;48.714;9.414;2022-07-30T00:26:31;98787.84;;;16.22;100.00
41264;BME280;26998;48.714;9.414;2022-07-30T00:28:58;98779.31;;;16.13;100.00
41264;BME280;26998;48.714;9.414;2022-07-30T00:31:24;98787.03;;;16.09;100.00
41264;BME280;26998;48.714;9.414;2022-07-30T00:33:52;98788.22;;;16.13;100.00
41264;BME280;26998;48.714;9.414;2022-07-30T00:36:19;98787.38;;;16.13;100.00
41264;BME280;26998;48.714;9.414;2022-07-30T00:38:46;98794.91;;;16.11;100.00
41264;BME280;26998;48.714;9.414;2022-07-30T00:41:12;98783.88;;;16.12;100.00
41264;BME280;26998;48.714;9.414;2022-07-30T00:43:42;98786.56;;;16.12;100.00
41264;BME280;26998;48.714;9.414;2022-07-30T00:46:10;98793.72;;;16.07;100.00
41264;BME280;26998;48.714;9.414;2022-07-30T00:48:36;98789.75;;;16.09;100.00
41264;BME280;26998;48.714;9.414;2022-07-30T00:51:04;98796.19;;;16.08;100.00
41264;BME280;26998;48.714;9.414;2022-07-30T00:53:32;98790.22;;;16.06;100.00
41264;BME280;26998;48.714;9.414;2022-07-30T00:56:01;98795.00;;;16.04;100.00
41264;BME280;26998;48.714;9.414;2022-07-30T00:58:28;98798.91;;;16.08;100.00
41264;BME280;26998;48.714;9.414;2022-07-30T01:00:54;98798.53;;;16.05;100.00
41264;BME280;26998;48.714;9.414;2022-07-30T01:03:21;98799.47;;;16.10;100.00
41264;BME280;26998;48.714;9.414;2022-07-30T01:05:48;98804.97;;;16.15;100.00
41264;BME280;26998;48.714;9.414;2022-07-30T01:08:14;98812.47;;;16.13;100.00
41264;BME280;26998;48.714;9.414;2022-07-30T01:10:41;98813.88;;;16.16;100.00
41264;BME280;26998;48.714;9.414;2022-07-30T01:13:08;98803.09;;;16.16;100.00
41264;BME280;26998;48.714;9.414;2022-07-30T01:15:36;98803.69;;;16.18;100.00
41264;BME280;26998;48.714;9.414;2022-07-30T01:18:05;98809.22;;;16.23;100.00
41264;BME280;26998;48.714;9.414;2022-07-30T01:20:39;98823.13;;;16.32;100.00
41264;BME280;26998;48.714;9.414;2022-07-30T01:23:24;98810.25;;;16.34;100.00
41264;BME280;26998;48.714;9.414;2022-07-30T01:26:04;98813.41;;;16.31;100.00
41264;BME280;26998;48.714;9.414;2022-07-30T01:28:38;98817.75;;;16.32;100.00
41264;BME280;26998;48.714;9.414;2022-07-30T01:31:06;98819.63;;;16.31;100.00
41264;BME280;26998;48.714;9.414;2022-07-30T01:33:38;98817.25;;;16.35;100.00
41264;BME280;26998;48.714;9.414;2022-07-30T01:36:09;98819.41;;;16.33;100.00
41264;BME280;26998;48.714;9.414;2022-07-30T01:38:38;98816.22;;;16.36;100.00
41264;BME280;26998;48.714;9.414;2022-07-30T01:41:06;98825.34;;;16.35;100.00
41264;BME280;26998;48.714;9.414;2022-07-30T01:43:34;98818.69;;;16.26;100.00
41264;BME280;26998;48.714;9.414;2022-07-30T01:46:02;98818.94;;;16.24;100.00
41264;BME280;26998;48.714;9.414;2022-07-30T01:48:34;98827.16;;;16.17;100.00
41264;BME280;26998;48.714;9.414;2022-07-30T01:51:05;98826.31;;;16.17;100.00
41264;BME280;26998;48.714;9.414;2022-07-30T01:53:35;98827.63;;;16.14;100.00
41264;BME280;26998;48.714;9.414;2022-07-30T01:56:04;98827.63;;;16.14;100.00
41264;BME280;26998;48.714;9.414;2022-07-30T01:58:37;98831.13;;;16.15;100.00
41264;BME280;26998;48.714;9.414;2022-07-30T02:01:05;98833.81;;;16.15;100.00
41264;BME280;26998;48.714;9.414;2022-07-30T02:03:33;98831.59;;;16.12;100.00
41264;BME280;26998;48.714;9.414;2022-07-30T02:06:07;98838.06;;;16.11;100.00
41264;BME280;26998;48.714;9.414;2022-07-30T02:11:09;98833.59;;;16.05;100.00
41264;BME280;26998;48.714;9.414;2022-07-30T02:13:46;98834.63;;;16.04;100.00
41264;BME280;26998;48.714;9.414;2022-07-30T02:16:21;98839.44;;;16.02;100.00
41264;BME280;26998;48.714;9.414;2022-07-30T02:18:56;98832.75;;;16.04;100.00
41264;BME280;26998;48.714;9.414;2022-07-30T02:21:25;98828.31;;;15.98;100.00
41264;BME280;26998;48.714;9.414;2022-07-30T02:24:05;98823.63;;;15.93;100.00
41264;BME280;26998;48.714;9.414;2022-07-30T02:26:34;98824.78;;;15.86;100.00
41264;BME280;26998;48.714;9.414;2022-07-30T02:29:03;98826.75;;;15.79;100.00
41264;BME280;26998;48.714;9.414;2022-07-30T02:31:37;98820.41;;;15.73;100.00
41264;BME280;26998;48.714;9.414;2022-07-30T02:34:07;98825.44;;;15.69;100.00
41264;BME280;26998;48.714;9.414;2022-07-30T02:36:35;98831.72;;;15.63;100.00
41264;BME280;26998;48.714;9.414;2022-07-30T02:39:04;98833.25;;;15.59;100.00
41264;BME280;26998;48.714;9.414;2022-07-30T02:41:32;98828.19;;;15.51;100.00
41264;BME280;26998;48.714;9.414;2022-07-30T02:44:00;98830.78;;;15.46;100.00
41264;BME280;26998;48.714;9.414;2022-07-30T02:46:28;98830.16;;;15.44;100.00
41264;BME280;26998;48.714;9.414;2022-07-30T02:48:58;98828.63;;;15.36;100.00
41264;BME280;26998;48.714;9.414;2022-07-30T02:51:26;98829.91;;;15.34;100.00
41264;BME280;26998;48.714;9.414;2022-07-30T02:53:56;98822.75;;;15.28;100.00
41264;BME280;26998;48.714;9.414;2022-07-30T02:56:24;98830.22;;;15.25;100.00
41264;BME280;26998;48.714;9.414;2022-07-30T02:58:55;98826.13;;;15.23;100.00
41264;BME280;26998;48.714;9.414;2022-07-30T03:01:24;98839.66;;;15.16;100.00
41264;BME280;26998;48.714;9.414;2022-07-30T03:03:51;98841.19;;;15.12;100.00
41264;BME280;26998;48.714;9.414;2022-07-30T03:06:19;98843.78;;;15.19;100.00
41264;BME280;26998;48.714;9.414;2022-07-30T03:08:48;98841.56;;;15.16;100.00
41264;BME280;26998;48.714;9.414;2022-07-30T03:11:17;98841.19;;;15.12;100.00
41264;BME280;26998;48.714;9.414;2022-07-30T03:13:44;98843.53;;;15.09;100.00
41264;BME280;26998;48.714;9.414;2022-07-30T03:16:11;98849.19;;;15.00;100.00
41264;BME280;26998;48.714;9.414;2022-07-30T03:18:40;98848.19;;;15.01;100.00
41264;BME280;26998;48.714;9.414;2022-07-30T03:21:09;98852.50;;;15.02;100.00
41264;BME280;26998;48.714;9.414;2022-07-30T03:23:36;98864.09;;;15.03;100.00
41264;BME280;26998;48.714;9.414;2022-07-30T03:26:04;98859.97;;;15.00;100.00
41264;BME280;26998;48.714;9.414;2022-07-30T03:28:35;98867.06;;;14.95;100.00
41264;BME280;26998;48.714;9.414;2022-07-30T03:31:04;98862.59;;;14.89;100.00
41264;BME280;26998;48.714;9.414;2022-07-30T03:33:32;98864.34;;;14.83;100.00
41264;BME280;26998;48.714;9.414;2022-07-30T03:36:05;98861.50;;;14.78;100.00
41264;BME280;26998;48.714;9.414;2022-07-30T03:38:33;98864.03;;;14.73;100.00
41264;BME280;26998;48.714;9.414;2022-07-30T03:41:03;98865.78;;;14.67;100.00
41264;BME280;26998;48.714;9.414;2022-07-30T03:43:30;98862.91;;;14.62;100.00
41264;BME280;26998;48.714;9.414;2022-07-30T03:46:04;98863.97;;;14.61;100.00
41264;BME280;26998;48.714;9.414;2022-07-30T03:48:32;98877.00;;;14.58;100.00
41264;BME280;26998;48.714;9.414;2022-07-30T03:51:02;98876.81;;;14.59;100.00
41264;BME280;26998;48.714;9.414;2022-07-30T03:53:29;98897.28;;;14.60;100.00
41264;BME280;26998;48.714;9.414;2022-07-30T03:55:58;98891.31;;;14.58;100.00
41264;BME280;26998;48.714;9.414;2022-07-30T03:58:26;98888.22;;;14.54;100.00
41264;BME280;26998;48.714;9.414;2022-07-30T04:01:01;98894.44;;;14.55;100.00
41264;BME280;26998;48.714;9.414;2022-07-30T04:03:30;98900.66;;;14.55;100.00
41264;BME280;26998;48.714;9.414;2022-07-30T04:05:58;98902.50;;;14.55;100.00
41264;BME280;26998;48.714;9.414;2022-07-30T04:08:29;98901.09;;;14.52;100.00
41264;BME280;26998;48.714;9.414;2022-07-30T04:10:56;98902.50;;;14.55;100.00
41264;BME280;26998;48.714;9.414;2022-07-30T04:13:23;98904.34;;;14.54;100.00
41264;BME280;26998;48.714;9.414;2022-07-30T04:16:10;98912.16;;;14.63;100.00
41264;BME280;26998;48.714;9.414;2022-07-30T04:19:00;98908.28;;;14.59;100.00
41264;BME280;26998;48.714;9.414;2022-07-30T04:21:28;98904.34;;;14.54;100.00
41264;BME280;26998;48.714;9.414;2022-07-30T04:23:58;98911.97;;;14.58;100.00
41264;BME280;26998;48.714;9.414;2022-07-30T04:26:31;98924.16;;;14.60;100.00
41264;BME280;26998;48.714;9.414;2022-07-30T04:28:59;98925.59;;;14.63;100.00
41264;BME280;26998;48.714;9.414;2022-07-30T04:31:27;98928.53;;;14.61;100.00
41264;BME280;26998;48.714;9.414;2022-07-30T04:33:55;98929.47;;;14.67;100.00
41264;BME280;26998;48.714;9.414;2022-07-30T04:36:32;98939.22;;;14.68;100.00
41264;BME280;26998;48.714;9.414;2022-07-30T04:39:01;98933.16;;;14.72;100.00
41264;BME280;26998;48.714;9.414;2022-07-30T04:41:28;98937.47;;;14.73;100.00
41264;BME280;26998;48.714;9.414;2022-07-30T04:44:14;98946.78;;;14.77;100.00
41264;BME280;26998;48.714;9.414;2022-07-30T04:46:41;98947.97;;;14.82;100.00
41264;BME280;26998;48.714;9.414;2022-07-30T04:49:13;98944.63;;;14.86;100.00
41264;BME280;26998;48.714;9.414;2022-07-30T04:51:42;98950.94;;;14.92;100.00
41264;BME280;26998;48.714;9.414;2022-07-30T04:54:13;98946.78;;;14.96;100.00
41264;BME280;26998;48.714;9.414;2022-07-30T04:56:43;98943.78;;;15.04;100.00
41264;BME280;26998;48.714;9.414;2022-07-30T04:59:20;98946.69;;;15.02;100.00
41264;BME280;26998;48.714;9.414;2022-07-30T05:01:49;98939.28;;;15.16;100.00
41264;BME280;26998;48.714;9.414;2022-07-30T05:04:17;98947.38;;;15.95;100.00
41264;BME280;26998;48.714;9.414;2022-07-30T05:06:44;98929.59;;;17.12;100.00
41264;BME280;26998;48.714;9.414;2022-07-30T05:09:14;98919.78;;;18.25;100.00
41264;BME280;26998;48.714;9.414;2022-07-30T05:11:41;98910.03;;;19.46;99.65
41264;BME280;26998;48.714;9.414;2022-07-30T05:14:07;98914.66;;;19.99;91.16
41264;BME280;26998;48.714;9.414;2022-07-30T05:16:34;98913.91;;;20.41;88.06
41264;BME280;26998;48.714;9.414;2022-07-30T05:19:01;98912.66;;;21.02;82.37
41264;BME280;26998;48.714;9.414;2022-07-30T05:21:35;98908.63;;;21.14;82.00
41264;BME280;26998;48.714;9.414;2022-07-30T05:24:02;98923.97;;;21.36;78.44
41264;BME280;26998;48.714;9.414;2022-07-30T05:26:29;98912.59;;;21.54;76.88
41264;BME280;26998;48.714;9.414;2022-07-30T05:28:56;98917.44;;;21.37;78.57
41264;BME280;26998;48.714;9.414;2022-07-30T05:31:23;98916.16;;;21.50;76.80
41264;BME280;26998;48.714;9.414;2022-07-30T05:33:51;98923.75;;;21.48;77.10
41264;BME280;26998;48.714;9.414;2022-07-30T05:36:18;98923.50;;;21.54;75.15
41264;BME280;26998;48.714;9.414;2022-07-30T05:38:47;98923.25;;;21.76;73.83
41264;BME280;26998;48.714;9.414;2022-07-30T05:41:13;98934.19;;;21.97;71.71
41264;BME280;26998;48.714;9.414;2022-07-30T05:43:59;98928.50;;;22.39;69.86
41264;BME280;26998;48.714;9.414;2022-07-30T05:46:27;98934.50;;;22.31;69.62
41264;BME280;26998;48.714;9.414;2022-07-30T05:48:53;98927.91;;;22.11;70.89
41264;BME280;26998;48.714;9.414;2022-07-30T05:51:20;98933.34;;;22.01;72.89
41264;BME280;26998;48.714;9.414;2022-07-30T05:53:47;98926.56;;;21.94;69.92
41264;BME280;26998;48.714;9.414;2022-07-30T05:56:13;98932.03;;;22.50;69.66
41264;BME280;26998;48.714;9.414;2022-07-30T05:58:42;98931.72;;;21.90;70.55
41264;BME280;26998;48.714;9.414;2022-07-30T06:01:09;98932.03;;;22.45;68.97
41264;BME280;26998;48.714;9.414;2022-07-30T06:03:37;98939.94;;;22.46;69.28
41264;BME280;26998;48.714;9.414;2022-07-30T06:06:06;98943.00;;;23.35;62.05
41264;BME280;26998;48.714;9.414;2022-07-30T06:08:33;98941.16;;;23.15;63.74
41264;BME280;26998;48.714;9.414;2022-07-30T06:11:00;98939.13;;;23.41;61.90
41264;BME280;26998;48.714;9.414;2022-07-30T06:13:27;98943.91;;;23.10;62.96
41264;BME280;26998;48.714;9.414;2022-07-30T06:15:56;98945.09;;;23.48;64.81
41264;BME280;26998;48.714;9.414;2022-07-30T06:18:22;98941.88;;;23.36;62.40
41264;BME280;26998;48.714;9.414;2022-07-30T06:20:50;98944.66;;;23.31;64.15
41264;BME280;26998;48.714;9.414;2022-07-30T06:23:18;98944.69;;;23.21;63.92
41264;BME280;26998;48.714;9.414;2022-07-30T06:25:44;98947.25;;;22.10;67.27
41264;BME280;26998;48.714;9.414;2022-07-30T06:28:11;98947.19;;;21.59;70.47
41264;BME280;26998;48.714;9.414;2022-07-30T06:30:57;98953.09;;;20.88;74.78
41264;BME280;26998;48.714;9.414;2022-07-30T06:33:24;98945.88;;;20.66;76.35
41264;BME280;26998;48.714;9.414;2022-07-30T06:35:51;98949.84;;;20.21;81.88
41264;BME280;26998;48.714;9.414;2022-07-30T06:38:20;98953.63;;;19.88;81.40
41264;BME280;26998;48.714;9.414;2022-07-30T06:41:02;98948.44;;;19.87;81.39
41264;BME280;26998;48.714;9.414;2022-07-30T06:43:30;98950.72;;;19.95;82.34
41264;BME280;26998;48.714;9.414;2022-07-30T06:45:56;98946.16;;;19.51;88.25
41264;BME280;26998;48.714;9.414;2022-07-30T06:48:23;98951.97;;;19.60;89.15
41264;BME280;26998;48.714;9.414;2022-07-30T06:50:49;98951.66;;;19.78;89.14
41264;BME280;26998;48.714;9.414;2022-07-30T06:53:16;98952.50;;;19.84;84.95
41264;BME280;26998;48.714;9.414;2022-07-30T06:55:42;98954.38;;;19.83;86.28
41264;BME280;26998;48.714;9.414;2022-07-30T06:58:09;98953.13;;;19.91;84.33
41264;BME280;26998;48.714;9.414;2022-07-30T07:00:35;98958.19;;;20.10;83.71
41264;BME280;26998;48.714;9.414;2022-07-30T07:03:01;98951.53;;;20.27;85.38
41264;BME280;26998;48.714;9.414;2022-07-30T07:05:28;98959.38;;;20.24;81.44
41264;BME280;26998;48.714;9.414;2022-07-30T07:07:54;98954.25;;;20.27;81.36
41264;BME280;26998;48.714;9.414;2022-07-30T07:10:25;98953.09;;;20.50;82.87
41264;BME280;26998;48.714;9.414;2022-07-30T07:12:52;98954.88;;;20.40;80.02
41264;BME280;26998;48.714;9.414;2022-07-30T07:15:19;98957.34;;;20.41;79.86
41264;BME280;26998;48.714;9.414;2022-07-30T07:17:58;98958.03;;;21.01;79.29
41264;BME280;26998;48.714;9.414;2022-07-30T07:20:27;98948.47;;;21.46;73.19
41264;BME280;26998;48.714;9.414;2022-07-30T07:22:54;98951.22;;;21.51;73.88
41264;BME280;26998;48.714;9.414;2022-07-30T07:25:22;98955.56;;;21.52;72.46
41264;BME280;26998;48.714;9.414;2022-07-30T07:27:49;98955.63;;;21.62;74.57
41264;BME280;26998;48.714;9.414;2022-07-30T07:30:35;98951.00;;;21.73;71.69
41264;BME280;26998;48.714;9.414;2022-07-30T07:33:02;98962.38;;;21.65;74.67
41264;BME280;26998;48.714;9.414;2022-07-30T07:35:29;98962.47;;;21.96;72.71
41264;BME280;26998;48.714;9.414;2022-07-30T07:37:55;98965.44;;;21.89;70.67
41264;BME280;26998;48.714;9.414;2022-07-30T07:40:22;98961.66;;;21.95;69.05
41264;BME280;26998;48.714;9.414;2022-07-30T07:42:49;98960.03;;;22.09;66.85
41264;BME280;26998;48.714;9.414;2022-07-30T07:45:19;98965.00;;;22.43;65.60
41264;BME280;26998;48.714;9.414;2022-07-30T07:47:47;98959.19;;;22.86;64.29
41264;BME280;26998;48.714;9.414;2022-07-30T07:50:19;98957.88;;;22.78;62.25
41264;BME280;26998;48.714;9.414;2022-07-30T07:52:47;98957.88;;;22.73;62.19
41264;BME280;26998;48.714;9.414;2022-07-30T07:55:13;98959.47;;;22.89;61.29
41264;BME280;26998;48.714;9.414;2022-07-30T07:57:41;98957.28;;;23.07;60.55
41264;BME280;26998;48.714;9.414;2022-07-30T08:00:10;98957.03;;;22.98;60.27
41264;BME280;26998;48.714;9.414;2022-07-30T08:02:38;98955.84;;;23.24;59.43
41264;BME280;26998;48.714;9.414;2022-07-30T08:05:05;98956.59;;;23.40;61.08
41264;BME280;26998;48.714;9.414;2022-07-30T08:07:33;98955.63;;;23.16;58.14
41264;BME280;26998;48.714;9.414;2022-07-30T08:09:59;98973.13;;;22.79;53.33
41264;BME280;26998;48.714;9.414;2022-07-30T08:12:26;98970.97;;;22.66;54.33
41264;BME280;26998;48.714;9.414;2022-07-30T08:14:53;98964.03;;;23.24;53.40
41264;BME280;26998;48.714;9.414;2022-07-30T08:17:19;98961.81;;;23.26;51.93
41264;BME280;26998;48.714;9.414;2022-07-30T08:19:46;98962.63;;;23.32;51.17
41264;BME280;26998;48.714;9.414;2022-07-30T08:22:13;98964.94;;;23.74;50.70
41264;BME280;26998;48.714;9.414;2022-07-30T08:24:39;98951.91;;;24.01;50.36
41264;BME280;26998;48.714;9.414;2022-07-30T08:27:06;98958.59;;;23.84;52.00
41264;BME280;26998;48.714;9.414;2022-07-30T08:29:33;98960.09;;;24.01;51.07
41264;BME280;26998;48.714;9.414;2022-07-30T08:32:01;98962.25;;;23.59;46.08
41264;BME280;26998;48.714;9.414;2022-07-30T08:34:28;98969.75;;;23.88;47.00
41264;BME280;26998;48.714;9.414;2022-07-30T08:36:55;98977.50;;;23.65;45.20
41264;BME280;26998;48.714;9.414;2022-07-30T08:39:21;98974.69;;;23.11;45.66
41264;BME280;26998;48.714;9.414;2022-07-30T08:41:48;98968.06;;;23.37;46.23
41264;BME280;26998;48.714;9.414;2022-07-30T08:44:17;98964.13;;;23.64;45.73
41264;BME280;26998;48.714;9.414;2022-07-30T08:46:45;98969.69;;;23.43;45.62
41264;BME280;26998;48.714;9.414;2022-07-30T08:49:13;98967.44;;;23.56;45.93
41264;BME280;26998;48.714;9.414;2022-07-30T08:51:41;98975.13;;;23.98;44.52
41264;BME280;26998;48.714;9.414;2022-07-30T08:54:08;98972.66;;;23.52;45.19
41264;BME280;26998;48.714;9.414;2022-07-30T08:56:35;98980.31;;;23.45;45.59
41264;BME280;26998;48.714;9.414;2022-07-30T08:59:03;98975.09;;;23.48;44.16
41264;BME280;26998;48.714;9.414;2022-07-30T09:01:29;98972.00;;;23.76;44.53
41264;BME280;26998;48.714;9.414;2022-07-30T09:03:57;98978.06;;;23.62;44.90
41264;BME280;26998;48.714;9.414;2022-07-30T09:06:24;98973.44;;;23.58;45.71
41264;BME280;26998;48.714;9.414;2022-07-30T09:08:50;98978.31;;;23.66;44.38
41264;BME280;26998;48.714;9.414;2022-07-30T09:11:17;98973.06;;;24.24;43.40
41264;BME280;26998;48.714;9.414;2022-07-30T09:13:43;98968.03;;;24.71;42.83
41264;BME280;26998;48.714;9.414;2022-07-30T09:16:24;98974.19;;;24.18;43.69
41264;BME280;26998;48.714;9.414;2022-07-30T09:18:52;98966.13;;;24.37;43.50
41264;BME280;26998;48.714;9.414;2022-07-30T09:21:24;98972.44;;;24.96;41.70
41264;BME280;26998;48.714;9.414;2022-07-30T09:23:58;98971.72;;;24.16;43.24
41264;BME280;26998;48.714;9.414;2022-07-30T09:26:25;98959.28;;;24.39;44.07
41264;BME280;26998;48.714;9.414;2022-07-30T09:28:52;98967.41;;;24.50;43.42
41264;BME280;26998;48.714;9.414;2022-07-30T09:31:21;98976.03;;;24.91;41.71
41264;BME280;26998;48.714;9.414;2022-07-30T09:33:48;98966.84;;;24.53;41.12
41264;BME280;26998;48.714;9.414;2022-07-30T09:36:16;98975.03;;;24.53;40.50
41264;BME280;26998;48.714;9.414;2022-07-30T09:38:49;98971.53;;;24.47;40.63
41264;BME280;26998;48.714;9.414;2022-07-30T09:41:19;98970.16;;;25.03;41.04
41264;BME280;26998;48.714;9.414;2022-07-30T09:44:04;98976.59;;;24.88;39.20
41264;BME280;26998;48.714;9.414;2022-07-30T09:46:41;98972.47;;;25.20;39.58
41264;BME280;26998;48.714;9.414;2022-07-30T09:52:01;98968.09;;;24.65;39.83
41264;BME280;26998;48.714;9.414;2022-07-30T09:54:45;98973.13;;;25.06;39.54
41264;BME280;26998;48.714;9.414;2022-07-30T09:57:17;98966.75;;;25.16;38.04
41264;BME280;26998;48.714;9.414;2022-07-30T09:59:56;98980.56;;;25.01;38.12
41264;BME280;26998;48.714;9.414;2022-07-30T10:02:32;98970.44;;;25.01;38.95
41264;BME280;26998;48.714;9.414;2022-07-30T10:05:12;98969.66;;;25.25;38.07
41264;BME280;26998;48.714;9.414;2022-07-30T10:10:42;98964.47;;;25.47;37.72
41264;BME280;26998;48.714;9.414;2022-07-30T10:13:16;98961.66;;;25.52;37.59
41264;BME280;26998;48.714;9.414;2022-07-30T10:15:48;98969.03;;;25.33;37.50
41264;BME280;26998;48.714;9.414;2022-07-30T10:18:14;98962.41;;;25.10;37.68
41264;BME280;26998;48.714;9.414;2022-07-30T10:20:45;98967.16;;;25.28;38.00
41264;BME280;26998;48.714;9.414;2022-07-30T10:23:13;98963.00;;;25.55;37.51
41264;BME280;26998;48.714;9.414;2022-07-30T10:25:46;98959.88;;;26.05;36.22
41264;BME280;26998;48.714;9.414;2022-07-30T10:28:22;98956.94;;;26.34;36.71
41264;BME280;26998;48.714;9.414;2022-07-30T10:30:53;98957.38;;;25.89;37.38
41264;BME280;26998;48.714;9.414;2022-07-30T10:33:22;98959.19;;;25.08;38.11
41264;BME280;26998;48.714;9.414;2022-07-30T10:36:05;98953.06;;;24.63;39.14
41264;BME280;26998;48.714;9.414;2022-07-30T10:38:37;98957.13;;;24.95;38.57
41264;BME280;26998;48.714;9.414;2022-07-30T10:41:35;98952.84;;;25.98;37.76
41264;BME280;26998;48.714;9.414;2022-07-30T10:44:29;98956.44;;;26.13;36.72
41264;BME280;26998;48.714;9.414;2022-07-30T10:47:08;98955.72;;;26.07;35.22
41264;BME280;26998;48.714;9.414;2022-07-30T10:49:37;98960.88;;;26.60;34.82
41264;BME280;26998;48.714;9.414;2022-07-30T10:52:08;98963.13;;;26.58;34.20
41264;BME280;26998;48.714;9.414;2022-07-30T10:54:40;98956.59;;;25.22;35.42
41264;BME280;26998;48.714;9.414;2022-07-30T10:57:18;98947.53;;;25.45;35.47
41264;BME280;26998;48.714;9.414;2022-07-30T11:02:31;98944.13;;;26.29;34.65
41264;BME280;26998;48.714;9.414;2022-07-30T11:07:44;98947.97;;;25.95;36.13
41264;BME280;26998;48.714;9.414;2022-07-30T11:10:42;98949.88;;;25.95;34.16
41264;BME280;26998;48.714;9.414;2022-07-30T11:13:11;98947.13;;;25.09;36.26
41264;BME280;26998;48.714;9.414;2022-07-30T11:15:57;98944.16;;;25.72;36.30
41264;BME280;26998;48.714;9.414;2022-07-30T11:18:25;98950.91;;;25.99;35.12
41264;BME280;26998;48.714;9.414;2022-07-30T11:21:14;98941.38;;;26.29;33.74
41264;BME280;26998;48.714;9.414;2022-07-30T11:23:42;98958.56;;;26.35;34.46
41264;BME280;26998;48.714;9.414;2022-07-30T11:26:57;98952.03;;;26.82;33.28
41264;BME280;26998;48.714;9.414;2022-07-30T11:28:59;98948.38;;;27.42;33.15
41264;BME280;26998;48.714;9.414;2022-07-30T11:31:30;98946.44;;;27.43;32.50
41264;BME280;26998;48.714;9.414;2022-07-30T11:37:07;98945.47;;;26.64;34.42
41264;BME280;26998;48.714;9.414;2022-07-30T11:42:31;98939.13;;;26.83;33.16
41264;BME280;26998;48.714;9.414;2022-07-30T11:47:49;98934.16;;;26.19;34.47
41264;BME280;26998;48.714;9.414;2022-07-30T11:50:27;98927.00;;;26.05;35.34
41264;BME280;26998;48.714;9.414;2022-07-30T11:53:09;98933.47;;;26.60;34.31
41264;BME280;26998;48.714;9.414;2022-07-30T11:55:41;98930.13;;;26.63;33.68
41264;BME280;26998;48.714;9.414;2022-07-30T12:00:51;98940.53;;;26.80;32.21
41264;BME280;26998;48.714;9.414;2022-07-30T12:03:20;98936.88;;;27.12;32.53
41264;BME280;26998;48.714;9.414;2022-07-30T12:05:48;98930.13;;;26.63;32.69
41264;BME280;26998;48.714;9.414;2022-07-30T12:08:18;98933.88;;;26.54;33.75
41264;BME280;26998;48.714;9.414;2022-07-30T12:11:03;98923.53;;;25.99;34.04
41264;BME280;26998;48.714;9.414;2022-07-30T12:13:29;98920.03;;;26.12;34.18
41264;BME280;26998;48.714;9.414;2022-07-30T12:16:14;98924.94;;;26.29;33.84
41264;BME280;26998;48.714;9.414;2022-07-30T12:18:42;98919.44;;;26.48;32.99
41264;BME280;26998;48.714;9.414;2022-07-30T12:21:10;98922.66;;;26.36;32.82
41264;BME280;26998;48.714;9.414;2022-07-30T12:23:38;98924.69;;;26.91;32.73
41264;BME280;26998;48.714;9.414;2022-07-30T12:26:05;98926.78;;;26.66;32.11
41264;BME280;26998;48.714;9.414;2022-07-30T12:28:34;98927.44;;;26.77;31.94
41264;BME280;26998;48.714;9.414;2022-07-30T12:31:02;98923.41;;;27.16;31.74
41264;BME280;26998;48.714;9.414;2022-07-30T12:33:29;98913.53;;;27.01;32.42
41264;BME280;26998;48.714;9.414;2022-07-30T12:35:58;98919.94;;;27.24;32.23
41264;BME280;26998;48.714;9.414;2022-07-30T12:38:27;98917.66;;;27.54;31.53
41264;BME280;26998;48.714;9.414;2022-07-30T12:41:03;98919.81;;;27.43;31.24
41264;BME280;26998;48.714;9.414;2022-07-30T12:48:57;98923.78;;;27.37;30.69
41264;BME280;26998;48.714;9.414;2022-07-30T12:51:35;98900.13;;;27.27;30.41
41264;BME280;26998;48.714;9.414;2022-07-30T12:54:17;98916.66;;;27.50;30.76
41264;BME280;26998;48.714;9.414;2022-07-30T12:57:04;98909.63;;;28.16;30.20
41264;BME280;26998;48.714;9.414;2022-07-30T12:59:32;98908.00;;;27.56;30.91
41264;BME280;26998;48.714;9.414;2022-07-30T13:01:58;98910.97;;;27.46;30.86
41264;BME280;26998;48.714;9.414;2022-07-30T13:04:25;98910.69;;;27.34;30.33
41264;BME280;26998;48.714;9.414;2022-07-30T13:07:06;98905.50;;;27.18;30.29
41264;BME280;26998;48.714;9.414;2022-07-30T13:09:33;98886.47;;;28.08;30.20
41264;BME280;26998;48.714;9.414;2022-07-30T13:12:00;98888.22;;;28.04;29.35
41264;BME280;26998;48.714;9.414;2022-07-30T13:14:29;98871.94;;;28.08;30.09
41264;BME280;26998;48.714;9.414;2022-07-30T13:16:56;98874.63;;;27.63;29.93
41264;BME280;26998;48.714;9.414;2022-07-30T13:19:23;98878.66;;;27.43;30.26
41264;BME280;26998;48.714;9.414;2022-07-30T13:21:50;98872.78;;;27.36;30.13
41264;BME280;26998;48.714;9.414;2022-07-30T13:24:17;98877.50;;;27.58;29.84
41264;BME280;26998;48.714;9.414;2022-07-30T13:26:45;98869.81;;;27.82;29.81
41264;BME280;26998;48.714;9.414;2022-07-30T13:29:11;98870.84;;;27.73;30.28
41264;BME280;26998;48.714;9.414;2022-07-30T13:31:39;98864.19;;;28.10;30.61
41264;BME280;26998;48.714;9.414;2022-07-30T13:34:09;98860.31;;;28.11;29.11
41264;BME280;26998;48.714;9.414;2022-07-30T13:36:39;98864.41;;;28.22;29.13
41264;BME280;26998;48.714;9.414;2022-07-30T13:39:06;98861.28;;;27.70;30.18
41264;BME280;26998;48.714;9.414;2022-07-30T13:41:33;98867.72;;;27.29;29.94